sensor_id;sensor_type;location;lat;lon;timestamp;pressure;altitude;pressure_sealevel;temperature;humidity
15314;BME280;7757;52.626;4.746;2023-08-24T00:00:52;101722.50;;;21.56;65.20
15314;BME280;7757;52.626;4.746;2023-08-24T00:03:17;101703.22;;;21.69;64.96
15314;BME280;7757;52.626;4.746;2023-08-24T00:05:43;101709.75;;;21.57;65.39
15314;BME280;7757;52.626;4.746;2023-08-24T00:08:09;101692.47;;;21.40;65.33
15314;BME280;7757;52.626;4.746;2023-08-24T00:10:35;101711.03;;;21.89;63.73
15314;BME280;7757;52.626;4.746;2023-08-24T00:13:01;101718.72;;;21.81;64.52
15314;BME280;7757;52.626;4.746;2023-08-24T00:15:30;101707.47;;;21.19;66.36
15314;BME280;7757;52.626;4.746;2023-08-24T00:17:55;101687.72;;;21.24;66.02
15314;BME280;7757;52.626;4.746;2023-08-24T00:20:21;101713.66;;;21.61;65.09
15314;BME280;7757;52.626;4.746;2023-08-24T00:22:46;101708.78;;;21.98;64.70
15314;BME280;7757;52.626;4.746;2023-08-24T00:25:12;101705.13;;;20.81;67.32
15314;BME280;7757;52.626;4.746;2023-08-24T00:27:38;101713.41;;;21.28;66.99
15314;BME280;7757;52.626;4.746;2023-08-24T00:30:05;101686.19;;;21.39;66.03
15314;BME280;7757;52.626;4.746;2023-08-24T00:32:32;101678.69;;;21.81;64.83
15314;BME280;7757;52.626;4.746;2023-08-24T00:35:00;101694.78;;;21.94;64.73
15314;BME280;7757;52.626;4.746;2023-08-24T00:37:25;101691.25;;;21.94;64.27
15314;BME280;7757;52.626;4.746;2023-08-24T00:39:50;101697.97;;;22.03;64.64
15314;BME280;7757;52.626;4.746;2023-08-24T00:42:16;101691.00;;;21.95;63.91
15314;BME280;7757;52.626;4.746;2023-08-24T00:44:41;101656.44;;;21.96;63.27
15314;BME280;7757;52.626;4.746;2023-08-24T00:47:08;101666.97;;;21.92;64.09
15314;BME280;7757;52.626;4.746;2023-08-24T00:49:34;101687.38;;;21.43;66.08
15314;BME280;7757;52.626;4.746;2023-08-24T00:52:00;101698.91;;;21.85;64.86
15314;BME280;7757;52.626;4.746;2023-08-24T00:54:26;101693.34;;;22.03;64.52
15314;BME280;7757;52.626;4.746;2023-08-24T00:56:53;101698.19;;;22.13;64.54
15314;BME280;7757;52.626;4.746;2023-08-24T00:59:18;101631.66;;;21.97;63.32
15314;BME280;7757;52.626;4.746;2023-08-24T01:01:45;101702.66;;;22.31;62.94
15314;BME280;7757;52.626;4.746;2023-08-24T01:04:12;101687.91;;;22.43;62.98
15314;BME280;7757;52.626;4.746;2023-08-24T01:06:38;101695.13;;;22.49;63.21
15314;BME280;7757;52.626;4.746;2023-08-24T01:09:06;101680.03;;;22.47;62.61
15314;BME280;7757;52.626;4.746;2023-08-24T01:17:22;101691.47;;;22.32;63.64
15314;BME280;7757;52.626;4.746;2023-08-24T01:19:48;101689.19;;;22.52;62.39
15314;BME280;7757;52.626;4.746;2023-08-24T01:22:23;101685.09;;;22.27;63.62
15314;BME280;7757;52.626;4.746;2023-08-24T01:27:40;101687.44;;;22.63;62.34
15314;BME280;7757;52.626;4.746;2023-08-24T01:30:06;101682.78;;;22.47;62.20
15314;BME280;7757;52.626;4.746;2023-08-24T01:32:33;101666.47;;;22.07;63.80
15314;BME280;7757;52.626;4.746;2023-08-24T01:35:01;101635.63;;;22.18;62.92
15314;BME280;7757;52.626;4.746;2023-08-24T01:37:27;101670.84;;;22.08;64.11
15314;BME280;7757;52.626;4.746;2023-08-24T01:42:29;101675.19;;;22.49;62.68
15314;BME280;7757;52.626;4.746;2023-08-24T01:44:58;101667.16;;;22.42;63.00
15314;BME280;7757;52.626;4.746;2023-08-24T01:47:27;101665.19;;;22.38;62.57
15314;BME280;7757;52.626;4.746;2023-08-24T01:49:53;101671.28;;;22.45;62.72
15314;BME280;7757;52.626;4.746;2023-08-24T01:52:19;101661.22;;;22.45;62.52
15314;BME280;7757;52.626;4.746;2023-08-24T01:54:47;101641.31;;;22.16;63.02
15314;BME280;7757;52.626;4.746;2023-08-24T01:57:13;101623.69;;;22.07;64.11
15314;BME280;7757;52.626;4.746;2023-08-24T01:59:38;101633.66;;;22.30;63.02
15314;BME280;7757;52.626;4.746;2023-08-24T02:02:05;101653.25;;;22.55;62.73
15314;BME280;7757;52.626;4.746;2023-08-24T02:04:32;101608.69;;;22.05;63.19
15314;BME280;7757;52.626;4.746;2023-08-24T02:06:58;101662.41;;;22.49;63.32
15314;BME280;7757;52.626;4.746;2023-08-24T02:09:25;101625.34;;;22.08;64.20
15314;BME280;7757;52.626;4.746;2023-08-24T02:11:51;101664.44;;;22.42;63.92
15314;BME280;7757;52.626;4.746;2023-08-24T02:14:16;101648.44;;;22.06;64.44
15314;BME280;7757;52.626;4.746;2023-08-24T02:16:43;101651.25;;;22.22;64.33
15314;BME280;7757;52.626;4.746;2023-08-24T02:19:08;101646.91;;;22.38;63.30
15314;BME280;7757;52.626;4.746;2023-08-24T02:21:36;101647.31;;;22.30;64.11
15314;BME280;7757;52.626;4.746;2023-08-24T02:24:05;101646.19;;;22.43;63.49
15314;BME280;7757;52.626;4.746;2023-08-24T02:26:32;101650.72;;;22.37;63.25
15314;BME280;7757;52.626;4.746;2023-08-24T02:29:00;101661.31;;;22.50;63.07
15314;BME280;7757;52.626;4.746;2023-08-24T02:31:25;101658.69;;;22.55;63.60
15314;BME280;7757;52.626;4.746;2023-08-24T02:33:51;101654.38;;;22.59;63.08
15314;BME280;7757;52.626;4.746;2023-08-24T02:36:16;101638.75;;;22.66;62.81
15314;BME280;7757;52.626;4.746;2023-08-24T02:38:42;101615.56;;;22.52;63.47
15314;BME280;7757;52.626;4.746;2023-08-24T02:41:07;101627.91;;;22.71;63.22
15314;BME280;7757;52.626;4.746;2023-08-24T02:43:34;101625.56;;;22.63;63.04
15314;BME280;7757;52.626;4.746;2023-08-24T02:46:04;101615.09;;;22.72;62.88
15314;BME280;7757;52.626;4.746;2023-08-24T02:48:31;101618.91;;;22.71;63.41
15314;BME280;7757;52.626;4.746;2023-08-24T02:51:00;101611.47;;;22.66;63.26
15314;BME280;7757;52.626;4.746;2023-08-24T02:53:26;101618.06;;;22.70;63.56
15314;BME280;7757;52.626;4.746;2023-08-24T02:55:53;101611.47;;;22.66;63.12
15314;BME280;7757;52.626;4.746;2023-08-24T02:58:19;101606.69;;;22.62;63.61
15314;BME280;7757;52.626;4.746;2023-08-24T03:00:44;101600.28;;;22.68;63.32
15314;BME280;7757;52.626;4.746;2023-08-24T03:03:10;101616.44;;;22.69;63.38
15314;BME280;7757;52.626;4.746;2023-08-24T03:05:35;101616.09;;;22.83;63.14
15314;BME280;7757;52.626;4.746;2023-08-24T03:08:01;101622.63;;;22.82;63.01
15314;BME280;7757;52.626;4.746;2023-08-24T03:10:31;101619.66;;;22.66;63.05
15314;BME280;7757;52.626;4.746;2023-08-24T03:12:58;101576.91;;;22.55;62.67
15314;BME280;7757;52.626;4.746;2023-08-24T03:15:23;101583.59;;;21.91;65.99
15314;BME280;7757;52.626;4.746;2023-08-24T03:17:48;101592.84;;;22.63;63.59
15314;BME280;7757;52.626;4.746;2023-08-24T03:20:14;101590.28;;;22.73;63.37
15314;BME280;7757;52.626;4.746;2023-08-24T03:22:41;101589.53;;;22.61;63.06
15314;BME280;7757;52.626;4.746;2023-08-24T03:25:06;101573.63;;;22.70;62.97
15314;BME280;7757;52.626;4.746;2023-08-24T03:27:32;101580.31;;;22.79;63.06
15314;BME280;7757;52.626;4.746;2023-08-24T03:29:57;101539.13;;;22.47;62.74
15314;BME280;7757;52.626;4.746;2023-08-24T03:32:23;101581.13;;;22.79;62.52
15314;BME280;7757;52.626;4.746;2023-08-24T03:34:49;101574.88;;;22.79;63.58
15314;BME280;7757;52.626;4.746;2023-08-24T03:37:14;101575.72;;;22.51;64.02
15314;BME280;7757;52.626;4.746;2023-08-24T03:39:40;101566.28;;;22.26;64.30
15314;BME280;7757;52.626;4.746;2023-08-24T03:42:06;101547.78;;;22.44;63.91
15314;BME280;7757;52.626;4.746;2023-08-24T03:44:33;101569.59;;;22.44;64.37
15314;BME280;7757;52.626;4.746;2023-08-24T03:46:59;101556.56;;;22.63;63.55
15314;BME280;7757;52.626;4.746;2023-08-24T03:49:24;101570.09;;;22.41;63.81
15314;BME280;7757;52.626;4.746;2023-08-24T03:51:51;101571.91;;;22.36;64.78
15314;BME280;7757;52.626;4.746;2023-08-24T03:54:16;101567.47;;;22.46;64.72
15314;BME280;7757;52.626;4.746;2023-08-24T03:56:42;101567.53;;;22.51;63.72
15314;BME280;7757;52.626;4.746;2023-08-24T03:59:08;101586.28;;;22.76;63.31
15314;BME280;7757;52.626;4.746;2023-08-24T04:01:34;101586.28;;;22.76;63.20
15314;BME280;7757;52.626;4.746;2023-08-24T04:04:00;101574.16;;;22.55;63.39
15314;BME280;7757;52.626;4.746;2023-08-24T04:06:27;101571.25;;;22.62;63.28
15314;BME280;7757;52.626;4.746;2023-08-24T04:08:52;101591.06;;;22.69;63.28
15314;BME280;7757;52.626;4.746;2023-08-24T04:11:18;101587.97;;;22.65;63.37
15314;BME280;7757;52.626;4.746;2023-08-24T04:13:44;101590.06;;;22.75;63.63
15314;BME280;7757;52.626;4.746;2023-08-24T04:16:09;101582.13;;;22.73;63.14
15314;BME280;7757;52.626;4.746;2023-08-24T04:18:35;101574.13;;;22.67;63.27
15314;BME280;7757;52.626;4.746;2023-08-24T04:21:02;101569.47;;;22.67;63.11
15314;BME280;7757;52.626;4.746;2023-08-24T04:23:28;101569.31;;;22.74;63.29
15314;BME280;7757;52.626;4.746;2023-08-24T04:25:54;101574.69;;;22.69;63.49
15314;BME280;7757;52.626;4.746;2023-08-24T04:28:20;101564.91;;;22.56;63.49
15314;BME280;7757;52.626;4.746;2023-08-24T04:30:53;101564.06;;;22.56;63.86
15314;BME280;7757;52.626;4.746;2023-08-24T04:33:18;101566.97;;;22.49;64.36
15314;BME280;7757;52.626;4.746;2023-08-24T04:35:48;101574.59;;;22.64;63.65
15314;BME280;7757;52.626;4.746;2023-08-24T04:38:15;101547.91;;;22.66;63.04
15314;BME280;7757;52.626;4.746;2023-08-24T04:40:48;101568.16;;;22.70;63.64
15314;BME280;7757;52.626;4.746;2023-08-24T04:43:16;101555.84;;;22.67;62.72
15314;BME280;7757;52.626;4.746;2023-08-24T04:45:46;101559.94;;;22.53;63.83
15314;BME280;7757;52.626;4.746;2023-08-24T04:48:12;101504.25;;;22.16;64.09
15314;BME280;7757;52.626;4.746;2023-08-24T04:50:39;101564.00;;;22.51;64.47
15314;BME280;7757;52.626;4.746;2023-08-24T04:53:04;101563.84;;;22.74;63.71
15314;BME280;7757;52.626;4.746;2023-08-24T04:55:30;101559.09;;;22.64;64.22
15314;BME280;7757;52.626;4.746;2023-08-24T04:57:56;101520.84;;;22.48;64.00
15314;BME280;7757;52.626;4.746;2023-08-24T05:00:22;101553.34;;;22.49;64.28
15314;BME280;7757;52.626;4.746;2023-08-24T05:02:50;101553.63;;;22.64;64.11
15314;BME280;7757;52.626;4.746;2023-08-24T05:05:16;101541.91;;;22.36;65.07
15314;BME280;7757;52.626;4.746;2023-08-24T05:07:42;101543.00;;;22.35;64.81
15314;BME280;7757;52.626;4.746;2023-08-24T05:10:08;101529.53;;;22.45;64.49
15314;BME280;7757;52.626;4.746;2023-08-24T05:12:34;101535.00;;;22.78;63.42
15314;BME280;7757;52.626;4.746;2023-08-24T05:15:05;101546.16;;;22.60;63.97
15314;BME280;7757;52.626;4.746;2023-08-24T05:17:30;101524.06;;;22.45;64.11
15314;BME280;7757;52.626;4.746;2023-08-24T05:19:57;101544.75;;;22.57;64.16
15314;BME280;7757;52.626;4.746;2023-08-24T05:22:23;101512.84;;;22.58;63.87
15314;BME280;7757;52.626;4.746;2023-08-24T05:24:48;101539.25;;;22.69;63.56
15314;BME280;7757;52.626;4.746;2023-08-24T05:27:15;101544.38;;;22.20;65.47
15314;BME280;7757;52.626;4.746;2023-08-24T05:29:41;101526.97;;;22.21;65.74
15314;BME280;7757;52.626;4.746;2023-08-24T05:32:08;101532.97;;;22.07;65.74
15314;BME280;7757;52.626;4.746;2023-08-24T05:34:34;101474.31;;;21.88;65.49
15314;BME280;7757;52.626;4.746;2023-08-24T05:37:01;101530.03;;;21.97;65.78
15314;BME280;7757;52.626;4.746;2023-08-24T05:39:27;101541.09;;;22.35;65.09
15314;BME280;7757;52.626;4.746;2023-08-24T05:41:53;101532.25;;;22.45;64.59
15314;BME280;7757;52.626;4.746;2023-08-24T05:44:19;101504.75;;;21.85;66.74
15314;BME280;7757;52.626;4.746;2023-08-24T05:46:45;101531.78;;;22.03;66.11
15314;BME280;7757;52.626;4.746;2023-08-24T05:49:11;101481.47;;;22.05;65.62
15314;BME280;7757;52.626;4.746;2023-08-24T05:51:37;101501.81;;;22.03;65.97
15314;BME280;7757;52.626;4.746;2023-08-24T05:54:02;101477.22;;;22.14;65.27
15314;BME280;7757;52.626;4.746;2023-08-24T05:56:27;101508.78;;;22.27;65.46
15314;BME280;7757;52.626;4.746;2023-08-24T05:58:54;101509.06;;;22.42;64.84
15314;BME280;7757;52.626;4.746;2023-08-24T06:01:21;101499.22;;;22.74;64.09
15314;BME280;7757;52.626;4.746;2023-08-24T06:03:46;101505.66;;;22.52;64.69
15314;BME280;7757;52.626;4.746;2023-08-24T06:06:12;101476.59;;;22.41;65.28
15314;BME280;7757;52.626;4.746;2023-08-24T06:08:37;101489.03;;;22.53;64.91
15314;BME280;7757;52.626;4.746;2023-08-24T06:11:04;101471.69;;;22.59;64.80
15314;BME280;7757;52.626;4.746;2023-08-24T06:13:29;101485.31;;;22.59;64.76
15314;BME280;7757;52.626;4.746;2023-08-24T06:15:56;101472.38;;;22.66;65.10
15314;BME280;7757;52.626;4.746;2023-08-24T06:18:21;101471.50;;;22.83;64.75
15314;BME280;7757;52.626;4.746;2023-08-24T06:20:47;101450.47;;;22.61;66.00
15314;BME280;7757;52.626;4.746;2023-08-24T06:23:17;101422.84;;;22.74;64.43
15314;BME280;7757;52.626;4.746;2023-08-24T06:25:43;101374.31;;;22.55;64.23
15314;BME280;7757;52.626;4.746;2023-08-24T06:28:09;101418.00;;;22.98;64.29
15314;BME280;7757;52.626;4.746;2023-08-24T06:30:39;101442.09;;;23.06;64.15
15314;BME280;7757;52.626;4.746;2023-08-24T06:33:05;101437.97;;;23.04;65.09
15314;BME280;7757;52.626;4.746;2023-08-24T06:35:32;101435.53;;;23.02;65.84
15314;BME280;7757;52.626;4.746;2023-08-24T06:37:58;101440.06;;;23.18;65.11
15314;BME280;7757;52.626;4.746;2023-08-24T06:40:24;101421.97;;;23.12;64.80
15314;BME280;7757;52.626;4.746;2023-08-24T06:42:51;101445.59;;;23.23;64.85
15314;BME280;7757;52.626;4.746;2023-08-24T06:45:17;101442.06;;;23.23;65.63
15314;BME280;7757;52.626;4.746;2023-08-24T06:47:44;101439.09;;;23.29;65.26
15314;BME280;7757;52.626;4.746;2023-08-24T06:50:10;101434.28;;;23.37;64.74
15314;BME280;7757;52.626;4.746;2023-08-24T06:52:36;101414.53;;;23.29;64.75
15314;BME280;7757;52.626;4.746;2023-08-24T06:55:03;101429.00;;;23.30;64.98
15314;BME280;7757;52.626;4.746;2023-08-24T06:57:29;101395.00;;;23.16;64.54
15314;BME280;7757;52.626;4.746;2023-08-24T06:59:55;101433.03;;;23.22;65.19
15314;BME280;7757;52.626;4.746;2023-08-24T07:02:20;101427.00;;;23.42;64.75
15314;BME280;7757;52.626;4.746;2023-08-24T07:04:46;101418.16;;;23.57;63.87
15314;BME280;7757;52.626;4.746;2023-08-24T07:07:11;101413.94;;;23.44;64.78
15314;BME280;7757;52.626;4.746;2023-08-24T07:09:36;101412.31;;;23.48;64.75
15314;BME280;7757;52.626;4.746;2023-08-24T07:12:02;101421.81;;;23.41;65.29
15314;BME280;7757;52.626;4.746;2023-08-24T07:14:31;101425.31;;;23.63;64.63
15314;BME280;7757;52.626;4.746;2023-08-24T07:16:57;101392.09;;;23.44;64.80
15314;BME280;7757;52.626;4.746;2023-08-24T07:19:24;101421.84;;;23.72;64.37
15314;BME280;7757;52.626;4.746;2023-08-24T07:21:50;101404.81;;;23.60;64.37
15314;BME280;7757;52.626;4.746;2023-08-24T07:24:17;101414.06;;;23.86;64.14
15314;BME280;7757;52.626;4.746;2023-08-24T07:26:44;101395.19;;;23.84;64.41
15314;BME280;7757;52.626;4.746;2023-08-24T07:29:11;101368.38;;;23.76;64.11
15314;BME280;7757;52.626;4.746;2023-08-24T07:31:36;101357.69;;;23.75;64.66
15314;BME280;7757;52.626;4.746;2023-08-24T07:34:02;101354.72;;;23.76;64.02
15314;BME280;7757;52.626;4.746;2023-08-24T07:36:28;101365.69;;;23.86;63.75
15314;BME280;7757;52.626;4.746;2023-08-24T07:38:55;101361.75;;;24.04;64.65
15314;BME280;7757;52.626;4.746;2023-08-24T07:41:20;101334.06;;;23.91;63.25
15314;BME280;7757;52.626;4.746;2023-08-24T07:43:45;101373.03;;;24.13;63.69
15314;BME280;7757;52.626;4.746;2023-08-24T07:46:11;101373.03;;;24.13;63.79
15314;BME280;7757;52.626;4.746;2023-08-24T07:48:36;101353.91;;;24.13;63.37
15314;BME280;7757;52.626;4.746;2023-08-24T07:51:03;101384.56;;;24.15;63.74
15314;BME280;7757;52.626;4.746;2023-08-24T07:53:29;101356.50;;;23.98;63.96
15314;BME280;7757;52.626;4.746;2023-08-24T07:55:54;101372.84;;;23.93;64.80
15314;BME280;7757;52.626;4.746;2023-08-24T07:58:23;101387.03;;;23.89;64.45
15314;BME280;7757;52.626;4.746;2023-08-24T08:00:50;101348.31;;;23.66;64.71
15314;BME280;7757;52.626;4.746;2023-08-24T08:03:18;101386.03;;;24.01;63.94
15314;BME280;7757;52.626;4.746;2023-08-24T08:05:43;101363.25;;;23.85;64.41
15314;BME280;7757;52.626;4.746;2023-08-24T08:08:09;101334.00;;;23.54;65.37
15314;BME280;7757;52.626;4.746;2023-08-24T08:10:34;101353.56;;;23.72;65.03
15314;BME280;7757;52.626;4.746;2023-08-24T08:13:00;101358.56;;;23.80;64.76
15314;BME280;7757;52.626;4.746;2023-08-24T08:15:25;101359.56;;;23.69;65.50
15314;BME280;7757;52.626;4.746;2023-08-24T08:17:51;101360.63;;;23.68;65.30
15314;BME280;7757;52.626;4.746;2023-08-24T08:20:17;101348.63;;;23.69;65.63
15314;BME280;7757;52.626;4.746;2023-08-24T08:22:43;101361.50;;;23.74;65.01
15314;BME280;7757;52.626;4.746;2023-08-24T08:25:08;101367.91;;;23.58;65.46
15314;BME280;7757;52.626;4.746;2023-08-24T08:27:33;101367.44;;;23.66;65.77
15314;BME280;7757;52.626;4.746;2023-08-24T08:29:59;101343.56;;;23.56;64.94
15314;BME280;7757;52.626;4.746;2023-08-24T08:32:24;101360.31;;;23.65;65.49
15314;BME280;7757;52.626;4.746;2023-08-24T08:34:56;101348.78;;;23.31;66.80
15314;BME280;7757;52.626;4.746;2023-08-24T08:37:26;101329.41;;;23.32;66.49
15314;BME280;7757;52.626;4.746;2023-08-24T08:39:52;101334.75;;;23.44;65.92
15314;BME280;7757;52.626;4.746;2023-08-24T08:42:18;101343.19;;;23.43;65.86
15314;BME280;7757;52.626;4.746;2023-08-24T08:44:46;101345.69;;;23.44;66.66
15314;BME280;7757;52.626;4.746;2023-08-24T08:47:13;101338.25;;;23.40;66.18
15314;BME280;7757;52.626;4.746;2023-08-24T08:49:39;101333.94;;;23.44;66.29
15314;BME280;7757;52.626;4.746;2023-08-24T08:52:05;101296.44;;;23.12;66.65
15314;BME280;7757;52.626;4.746;2023-08-24T08:54:31;101329.16;;;23.34;66.44
15314;BME280;7757;52.626;4.746;2023-08-24T08:56:58;101308.38;;;23.33;65.97
15314;BME280;7757;52.626;4.746;2023-08-24T08:59:27;101329.72;;;23.36;66.96
15314;BME280;7757;52.626;4.746;2023-08-24T09:01:56;101324.25;;;23.36;67.32
15314;BME280;7757;52.626;4.746;2023-08-24T09:04:23;101285.53;;;23.12;66.51
15314;BME280;7757;52.626;4.746;2023-08-24T09:06:49;101319.44;;;23.43;67.08
15314;BME280;7757;52.626;4.746;2023-08-24T09:09:15;101318.41;;;23.22;67.98
15314;BME280;7757;52.626;4.746;2023-08-24T09:11:43;101308.91;;;23.03;68.48
15314;BME280;7757;52.626;4.746;2023-08-24T09:14:12;101262.22;;;22.73;69.76
15314;BME280;7757;52.626;4.746;2023-08-24T09:16:37;101287.06;;;23.03;69.17
15314;BME280;7757;52.626;4.746;2023-08-24T09:19:05;101290.03;;;23.23;68.33
15314;BME280;7757;52.626;4.746;2023-08-24T09:21:36;101303.75;;;23.07;68.86
15314;BME280;7757;52.626;4.746;2023-08-24T09:24:02;101287.31;;;22.97;69.28
15314;BME280;7757;52.626;4.746;2023-08-24T09:26:33;101317.25;;;23.18;69.13
15314;BME280;7757;52.626;4.746;2023-08-24T09:29:00;101323.84;;;23.22;68.14
15314;BME280;7757;52.626;4.746;2023-08-24T09:31:35;101280.50;;;22.99;68.12
15314;BME280;7757;52.626;4.746;2023-08-24T09:34:20;101327.09;;;23.19;68.86
15314;BME280;7757;52.626;4.746;2023-08-24T09:37:14;101300.56;;;23.15;68.70
15314;BME280;7757;52.626;4.746;2023-08-24T09:40:04;101301.06;;;22.63;71.13
15314;BME280;7757;52.626;4.746;2023-08-24T09:42:52;101311.72;;;23.08;69.39
15314;BME280;7757;52.626;4.746;2023-08-24T09:46:00;101333.94;;;23.22;69.58
15314;BME280;7757;52.626;4.746;2023-08-24T10:09:31;101317.09;;;23.03;69.91
15314;BME280;7757;52.626;4.746;2023-08-24T10:12:00;101337.06;;;23.09;69.92
15314;BME280;7757;52.626;4.746;2023-08-24T10:14:31;101327.81;;;23.10;69.72
15314;BME280;7757;52.626;4.746;2023-08-24T10:19:24;101355.59;;;23.07;70.68
15314;BME280;7757;52.626;4.746;2023-08-24T10:21:50;101364.16;;;23.15;69.94
15314;BME280;7757;52.626;4.746;2023-08-24T10:24:18;101382.72;;;23.13;70.84
15314;BME280;7757;52.626;4.746;2023-08-24T10:26:47;101353.63;;;22.59;70.59
15314;BME280;7757;52.626;4.746;2023-08-24T10:29:13;101421.69;;;22.87;71.89
15314;BME280;7757;52.626;4.746;2023-08-24T10:31:41;101423.84;;;22.85;72.37
15314;BME280;7757;52.626;4.746;2023-08-24T10:34:09;101416.34;;;22.75;72.80
15314;BME280;7757;52.626;4.746;2023-08-24T10:36:38;101371.59;;;22.98;71.42
15314;BME280;7757;52.626;4.746;2023-08-24T10:39:05;101370.69;;;22.88;72.15
15314;BME280;7757;52.626;4.746;2023-08-24T10:41:49;101366.53;;;23.07;71.99
15314;BME280;7757;52.626;4.746;2023-08-24T10:44:34;101362.81;;;23.40;69.95
15314;BME280;7757;52.626;4.746;2023-08-24T10:47:06;101349.09;;;23.34;69.83
15314;BME280;7757;52.626;4.746;2023-08-24T10:49:32;101346.25;;;23.24;70.66
15314;BME280;7757;52.626;4.746;2023-08-24T10:52:16;101358.38;;;23.12;71.74
15314;BME280;7757;52.626;4.746;2023-08-24T10:54:43;101361.06;;;23.07;71.76
15314;BME280;7757;52.626;4.746;2023-08-24T10:57:25;101353.53;;;23.14;71.85
15314;BME280;7757;52.626;4.746;2023-08-24T11:02:50;101350.84;;;23.19;70.93
15314;BME280;7757;52.626;4.746;2023-08-24T11:07:56;101323.03;;;23.22;71.92
15314;BME280;7757;52.626;4.746;2023-08-24T11:10:23;101302.69;;;23.08;72.57
15314;BME280;7757;52.626;4.746;2023-08-24T11:15:41;101294.22;;;23.36;71.29
15314;BME280;7757;52.626;4.746;2023-08-24T11:18:19;101286.31;;;23.34;70.58
15314;BME280;7757;52.626;4.746;2023-08-24T11:23:23;101266.19;;;23.14;71.50
15314;BME280;7757;52.626;4.746;2023-08-24T11:25:51;101246.25;;;23.13;71.45
15314;BME280;7757;52.626;4.746;2023-08-24T11:28:20;101235.91;;;23.15;71.27
15314;BME280;7757;52.626;4.746;2023-08-24T11:30:47;101193.53;;;22.76;72.78
15314;BME280;7757;52.626;4.746;2023-08-24T11:33:13;101200.28;;;22.73;73.31
15314;BME280;7757;52.626;4.746;2023-08-24T11:35:44;101182.13;;;22.57;73.84
15314;BME280;7757;52.626;4.746;2023-08-24T11:38:11;101213.56;;;22.92;72.78
15314;BME280;7757;52.626;4.746;2023-08-24T11:40:37;101212.91;;;22.79;73.25
15314;BME280;7757;52.626;4.746;2023-08-24T11:43:03;101174.50;;;22.11;76.25
15314;BME280;7757;52.626;4.746;2023-08-24T11:45:35;101198.47;;;22.57;75.38
15314;BME280;7757;52.626;4.746;2023-08-24T11:48:02;101161.59;;;22.76;73.02
15314;BME280;7757;52.626;4.746;2023-08-24T11:50:30;101205.22;;;23.03;72.94
15314;BME280;7757;52.626;4.746;2023-08-24T11:52:57;101192.44;;;23.09;71.82
15314;BME280;7757;52.626;4.746;2023-08-24T11:55:23;101208.22;;;23.02;72.87
15314;BME280;7757;52.626;4.746;2023-08-24T11:57:49;101182.81;;;22.69;73.46
15314;BME280;7757;52.626;4.746;2023-08-24T12:00:15;101181.69;;;22.97;72.74
15314;BME280;7757;52.626;4.746;2023-08-24T12:02:41;101205.44;;;23.23;72.38
15314;BME280;7757;52.626;4.746;2023-08-24T12:05:07;101171.13;;;23.06;72.47
15314;BME280;7757;52.626;4.746;2023-08-24T12:07:33;101160.28;;;23.11;72.21
15314;BME280;7757;52.626;4.746;2023-08-24T12:10:02;101191.81;;;23.28;72.25
15314;BME280;7757;52.626;4.746;2023-08-24T12:12:28;101185.69;;;23.16;73.01
15314;BME280;7757;52.626;4.746;2023-08-24T12:14:55;101172.66;;;23.23;72.53
15314;BME280;7757;52.626;4.746;2023-08-24T12:17:20;101159.44;;;23.10;74.03
15314;BME280;7757;52.626;4.746;2023-08-24T12:19:59;101152.78;;;23.33;72.56
15314;BME280;7757;52.626;4.746;2023-08-24T12:22:26;101149.53;;;23.36;72.15
15314;BME280;7757;52.626;4.746;2023-08-24T12:24:52;101146.91;;;23.41;71.90
15314;BME280;7757;52.626;4.746;2023-08-24T12:27:22;101148.81;;;23.46;71.90
15314;BME280;7757;52.626;4.746;2023-08-24T12:29:48;101126.84;;;23.30;72.05
15314;BME280;7757;52.626;4.746;2023-08-24T12:32:14;101126.03;;;23.30;72.37
15314;BME280;7757;52.626;4.746;2023-08-24T12:34:45;101145.19;;;23.35;72.89
15314;BME280;7757;52.626;4.746;2023-08-24T12:37:11;101144.22;;;23.56;72.48
15314;BME280;7757;52.626;4.746;2023-08-24T12:39:38;101128.88;;;23.40;73.40
15314;BME280;7757;52.626;4.746;2023-08-24T12:42:04;101137.94;;;23.51;73.50
15314;BME280;7757;52.626;4.746;2023-08-24T12:44:31;101137.09;;;23.50;73.46
15314;BME280;7757;52.626;4.746;2023-08-24T12:46:57;101125.09;;;23.51;73.09
15314;BME280;7757;52.626;4.746;2023-08-24T12:49:23;101125.41;;;23.60;72.75
15314;BME280;7757;52.626;4.746;2023-08-24T12:51:48;101097.75;;;23.41;74.07
15314;BME280;7757;52.626;4.746;2023-08-24T12:54:14;101095.16;;;23.29;74.34
15314;BME280;7757;52.626;4.746;2023-08-24T12:56:39;101065.91;;;22.78;77.55
15314;BME280;7757;52.626;4.746;2023-08-24T12:59:07;101067.56;;;23.21;75.38
15314;BME280;7757;52.626;4.746;2023-08-24T13:01:34;101053.63;;;23.17;75.23
15314;BME280;7757;52.626;4.746;2023-08-24T13:04:00;101065.59;;;23.11;75.65
15314;BME280;7757;52.626;4.746;2023-08-24T13:06:26;101044.19;;;22.93;75.98
15314;BME280;7757;52.626;4.746;2023-08-24T13:08:53;101054.22;;;23.24;75.73
15314;BME280;7757;52.626;4.746;2023-08-24T13:11:20;101063.41;;;23.55;74.07
15314;BME280;7757;52.626;4.746;2023-08-24T13:13:47;101043.44;;;23.03;76.46
15314;BME280;7757;52.626;4.746;2023-08-24T13:16:15;101064.59;;;23.27;76.07
15314;BME280;7757;52.626;4.746;2023-08-24T13:18:42;101052.97;;;23.42;74.53
15314;BME280;7757;52.626;4.746;2023-08-24T13:21:07;101055.16;;;23.40;74.92
15314;BME280;7757;52.626;4.746;2023-08-24T13:23:33;101037.59;;;23.31;75.05
15314;BME280;7757;52.626;4.746;2023-08-24T13:26:04;100987.34;;;22.75;77.07
15314;BME280;7757;52.626;4.746;2023-08-24T13:28:37;101030.34;;;23.47;75.04
15314;BME280;7757;52.626;4.746;2023-08-24T13:31:05;101034.06;;;23.35;74.76
15314;BME280;7757;52.626;4.746;2023-08-24T13:33:30;101017.41;;;23.32;74.88
15314;BME280;7757;52.626;4.746;2023-08-24T13:35:56;101024.88;;;23.47;74.45
15314;BME280;7757;52.626;4.746;2023-08-24T13:38:22;101014.19;;;23.40;74.77
15314;BME280;7757;52.626;4.746;2023-08-24T13:40:47;101003.56;;;23.44;74.16
15314;BME280;7757;52.626;4.746;2023-08-24T13:43:16;101019.97;;;23.54;74.38
15314;BME280;7757;52.626;4.746;2023-08-24T13:45:41;101039.38;;;23.52;74.93